sensor_id;sensor_type;location;lat;lon;timestamp;P1;durP1;ratioP1;P2;durP2;ratioP2
34695;SDS011;20918;51.138;17.370;2023-05-29T00:00:13;9.00;;;4.10;;
34695;SDS011;20918;51.138;17.370;2023-05-29T00:03:23;10.00;;;4.90;;
34695;SDS011;20918;51.138;17.370;2023-05-29T00:06:36;8.20;;;4.10;;
34695;SDS011;20918;51.138;17.370;2023-05-29T00:09:44;7.00;;;4.30;;
34695;SDS011;20918;51.138;17.370;2023-05-29T00:15:54;5.10;;;3.90;;
34695;SDS011;20918;51.138;17.370;2023-05-29T00:22:47;6.30;;;4.10;;
34695;SDS011;20918;51.138;17.370;2023-05-29T00:26:10;7.10;;;4.20;;
34695;SDS011;20918;51.138;17.370;2023-05-29T00:29:47;6.50;;;4.20;;
34695;SDS011;20918;51.138;17.370;2023-05-29T00:33:09;7.30;;;4.00;;
34695;SDS011;20918;51.138;17.370;2023-05-29T00:36:09;6.60;;;4.50;;
34695;SDS011;20918;51.138;17.370;2023-05-29T00:39:21;7.20;;;4.50;;
34695;SDS011;20918;51.138;17.370;2023-05-29T00:46:48;8.50;;;4.60;;
34695;SDS011;20918;51.138;17.370;2023-05-29T00:50:23;7.90;;;4.40;;
34695;SDS011;20918;51.138;17.370;2023-05-29T00:53:36;7.00;;;4.50;;
34695;SDS011;20918;51.138;17.370;2023-05-29T00:57:01;7.30;;;4.00;;
34695;SDS011;20918;51.138;17.370;2023-05-29T01:00:19;13.80;;;4.50;;
34695;SDS011;20918;51.138;17.370;2023-05-29T01:03:53;12.50;;;4.70;;
34695;SDS011;20918;51.138;17.370;2023-05-29T01:07:12;7.40;;;4.80;;
34695;SDS011;20918;51.138;17.370;2023-05-29T01:10:32;5.70;;;4.40;;
34695;SDS011;20918;51.138;17.370;2023-05-29T01:18:06;7.50;;;4.70;;
34695;SDS011;20918;51.138;17.370;2023-05-29T01:24:56;9.30;;;4.40;;
34695;SDS011;20918;51.138;17.370;2023-05-29T01:28:07;11.20;;;3.90;;
34695;SDS011;20918;51.138;17.370;2023-05-29T01:31:14;6.60;;;3.90;;
34695;SDS011;20918;51.138;17.370;2023-05-29T01:34:27;6.70;;;3.90;;
34695;SDS011;20918;51.138;17.370;2023-05-29T01:37:31;9.90;;;4.40;;
34695;SDS011;20918;51.138;17.370;2023-05-29T01:40:38;6.60;;;4.10;;
34695;SDS011;20918;51.138;17.370;2023-05-29T01:43:39;7.60;;;4.40;;
34695;SDS011;20918;51.138;17.370;2023-05-29T01:46:48;11.10;;;4.60;;
34695;SDS011;20918;51.138;17.370;2023-05-29T01:50:00;8.50;;;4.50;;
34695;SDS011;20918;51.138;17.370;2023-05-29T01:53:13;8.90;;;4.60;;
34695;SDS011;20918;51.138;17.370;2023-05-29T01:56:14;10.60;;;4.80;;
34695;SDS011;20918;51.138;17.370;2023-05-29T01:59:15;12.70;;;5.10;;
34695;SDS011;20918;51.138;17.370;2023-05-29T02:02:24;8.50;;;4.50;;
34695;SDS011;20918;51.138;17.370;2023-05-29T02:05:43;9.00;;;5.00;;
34695;SDS011;20918;51.138;17.370;2023-05-29T02:08:44;8.70;;;4.70;;
34695;SDS011;20918;51.138;17.370;2023-05-29T02:12:04;7.10;;;4.20;;
34695;SDS011;20918;51.138;17.370;2023-05-29T02:15:08;7.40;;;4.40;;
34695;SDS011;20918;51.138;17.370;2023-05-29T02:18:12;7.60;;;4.50;;
34695;SDS011;20918;51.138;17.370;2023-05-29T02:21:41;5.90;;;4.30;;
34695;SDS011;20918;51.138;17.370;2023-05-29T02:25:05;8.50;;;4.60;;
34695;SDS011;20918;51.138;17.370;2023-05-29T02:28:09;9.60;;;4.90;;
34695;SDS011;20918;51.138;17.370;2023-05-29T02:31:17;8.80;;;4.80;;
34695;SDS011;20918;51.138;17.370;2023-05-29T02:34:41;10.60;;;5.60;;
34695;SDS011;20918;51.138;17.370;2023-05-29T02:37:44;7.50;;;4.70;;
34695;SDS011;20918;51.138;17.370;2023-05-29T02:41:18;9.20;;;4.60;;
34695;SDS011;20918;51.138;17.370;2023-05-29T02:44:41;7.80;;;4.10;;
34695;SDS011;20918;51.138;17.370;2023-05-29T02:47:45;7.30;;;4.80;;
34695;SDS011;20918;51.138;17.370;2023-05-29T02:50:49;7.30;;;4.50;;
34695;SDS011;20918;51.138;17.370;2023-05-29T02:56:51;7.20;;;4.20;;
34695;SDS011;20918;51.138;17.370;2023-05-29T02:59:55;7.00;;;4.60;;
34695;SDS011;20918;51.138;17.370;2023-05-29T03:02:58;8.30;;;4.90;;
34695;SDS011;20918;51.138;17.370;2023-05-29T03:06:01;11.20;;;4.90;;
34695;SDS011;20918;51.138;17.370;2023-05-29T03:09:03;8.40;;;4.90;;
34695;SDS011;20918;51.138;17.370;2023-05-29T03:12:20;5.80;;;4.30;;
34695;SDS011;20918;51.138;17.370;2023-05-29T03:15:33;10.80;;;5.00;;
34695;SDS011;20918;51.138;17.370;2023-05-29T03:18:37;6.90;;;4.50;;
34695;SDS011;20918;51.138;17.370;2023-05-29T03:25:00;6.20;;;4.00;;
34695;SDS011;20918;51.138;17.370;2023-05-29T03:28:18;7.60;;;4.60;;
34695;SDS011;20918;51.138;17.370;2023-05-29T03:31:30;8.40;;;4.80;;
34695;SDS011;20918;51.138;17.370;2023-05-29T03:34:34;7.10;;;4.30;;
34695;SDS011;20918;51.138;17.370;2023-05-29T03:37:39;13.30;;;4.90;;
34695;SDS011;20918;51.138;17.370;2023-05-29T03:41:01;9.30;;;4.60;;
34695;SDS011;20918;51.138;17.370;2023-05-29T03:44:03;7.20;;;4.90;;
34695;SDS011;20918;51.138;17.370;2023-05-29T03:47:14;8.90;;;4.70;;
34695;SDS011;20918;51.138;17.370;2023-05-29T03:51:16;6.80;;;4.10;;
34695;SDS011;20918;51.138;17.370;2023-05-29T03:54:22;8.00;;;5.60;;
34695;SDS011;20918;51.138;17.370;2023-05-29T04:01:03;13.00;;;5.40;;
34695;SDS011;20918;51.138;17.370;2023-05-29T04:04:08;9.20;;;4.90;;
34695;SDS011;20918;51.138;17.370;2023-05-29T04:07:15;8.30;;;4.80;;
34695;SDS011;20918;51.138;17.370;2023-05-29T04:10:32;13.30;;;4.90;;
34695;SDS011;20918;51.138;17.370;2023-05-29T04:17:30;10.10;;;5.30;;
34695;SDS011;20918;51.138;17.370;2023-05-29T04:21:03;11.00;;;6.00;;
34695;SDS011;20918;51.138;17.370;2023-05-29T04:24:26;10.40;;;5.80;;
34695;SDS011;20918;51.138;17.370;2023-05-29T04:31:29;9.40;;;5.30;;
34695;SDS011;20918;51.138;17.370;2023-05-29T04:34:39;10.90;;;5.00;;
34695;SDS011;20918;51.138;17.370;2023-05-29T04:38:01;10.10;;;5.20;;
34695;SDS011;20918;51.138;17.370;2023-05-29T04:41:59;12.00;;;4.80;;
34695;SDS011;20918;51.138;17.370;2023-05-29T04:49:18;14.20;;;5.10;;
34695;SDS011;20918;51.138;17.370;2023-05-29T04:52:35;6.50;;;4.90;;
34695;SDS011;20918;51.138;17.370;2023-05-29T04:55:58;7.60;;;4.80;;
34695;SDS011;20918;51.138;17.370;2023-05-29T04:59:56;11.60;;;4.80;;
34695;SDS011;20918;51.138;17.370;2023-05-29T05:10:52;10.30;;;5.50;;
34695;SDS011;20918;51.138;17.370;2023-05-29T05:14:54;9.00;;;5.10;;
34695;SDS011;20918;51.138;17.370;2023-05-29T05:18:22;9.60;;;5.20;;
34695;SDS011;20918;51.138;17.370;2023-05-29T05:21:41;9.40;;;4.90;;
34695;SDS011;20918;51.138;17.370;2023-05-29T05:32:46;9.50;;;5.00;;
34695;SDS011;20918;51.138;17.370;2023-05-29T05:36:44;14.90;;;4.80;;
34695;SDS011;20918;51.138;17.370;2023-05-29T05:44:22;6.60;;;4.40;;
34695;SDS011;20918;51.138;17.370;2023-05-29T06:15:29;6.50;;;4.10;;
34695;SDS011;20918;51.138;17.370;2023-05-29T06:23:40;11.40;;;5.80;;
34695;SDS011;20918;51.138;17.370;2023-05-29T06:48:13;8.80;;;4.00;;
34695;SDS011;20918;51.138;17.370;2023-05-29T07:21:55;6.80;;;3.10;;
34695;SDS011;20918;51.138;17.370;2023-05-29T07:29:34;6.30;;;2.70;;
34695;SDS011;20918;51.138;17.370;2023-05-29T07:45:58;3.50;;;2.10;;
34695;SDS011;20918;51.138;17.370;2023-05-29T07:49:32;8.90;;;2.80;;
34695;SDS011;20918;51.138;17.370;2023-05-29T07:52:34;7.10;;;2.20;;
34695;SDS011;20918;51.138;17.370;2023-05-29T07:55:35;5.20;;;2.60;;
34695;SDS011;20918;51.138;17.370;2023-05-29T07:58:36;5.60;;;2.50;;
34695;SDS011;20918;51.138;17.370;2023-05-29T08:01:37;3.20;;;2.50;;
34695;SDS011;20918;51.138;17.370;2023-05-29T08:04:47;7.10;;;2.80;;
34695;SDS011;20918;51.138;17.370;2023-05-29T08:07:48;4.60;;;2.50;;
34695;SDS011;20918;51.138;17.370;2023-05-29T08:10:48;5.40;;;2.30;;
34695;SDS011;20918;51.138;17.370;2023-05-29T08:13:49;3.10;;;2.40;;
34695;SDS011;20918;51.138;17.370;2023-05-29T08:16:50;5.00;;;2.30;;
34695;SDS011;20918;51.138;17.370;2023-05-29T08:19:51;7.10;;;2.50;;
34695;SDS011;20918;51.138;17.370;2023-05-29T08:22:53;3.00;;;2.60;;
34695;SDS011;20918;51.138;17.370;2023-05-29T08:25:54;6.00;;;2.20;;
34695;SDS011;20918;51.138;17.370;2023-05-29T08:28:55;4.10;;;2.00;;
34695;SDS011;20918;51.138;17.370;2023-05-29T08:31:56;4.30;;;2.40;;
34695;SDS011;20918;51.138;17.370;2023-05-29T08:34:57;4.50;;;1.80;;
34695;SDS011;20918;51.138;17.370;2023-05-29T08:37:58;5.10;;;2.10;;
34695;SDS011;20918;51.138;17.370;2023-05-29T08:40:59;6.10;;;2.30;;
34695;SDS011;20918;51.138;17.370;2023-05-29T08:44:00;9.00;;;2.10;;
34695;SDS011;20918;51.138;17.370;2023-05-29T08:47:05;4.40;;;2.20;;
34695;SDS011;20918;51.138;17.370;2023-05-29T08:50:07;5.50;;;2.30;;
34695;SDS011;20918;51.138;17.370;2023-05-29T08:53:10;2.60;;;2.20;;
34695;SDS011;20918;51.138;17.370;2023-05-29T08:56:11;6.30;;;2.70;;
34695;SDS011;20918;51.138;17.370;2023-05-29T08:59:12;8.10;;;2.60;;
34695;SDS011;20918;51.138;17.370;2023-05-29T09:02:13;2.60;;;2.20;;
34695;SDS011;20918;51.138;17.370;2023-05-29T09:05:15;4.40;;;2.10;;
34695;SDS011;20918;51.138;17.370;2023-05-29T09:08:17;3.10;;;2.20;;
34695;SDS011;20918;51.138;17.370;2023-05-29T09:11:18;6.60;;;2.60;;
34695;SDS011;20918;51.138;17.370;2023-05-29T09:14:31;4.60;;;2.20;;
34695;SDS011;20918;51.138;17.370;2023-05-29T09:17:36;6.60;;;2.20;;
34695;SDS011;20918;51.138;17.370;2023-05-29T09:20:36;6.00;;;2.40;;
34695;SDS011;20918;51.138;17.370;2023-05-29T09:23:37;2.70;;;2.10;;
34695;SDS011;20918;51.138;17.370;2023-05-29T09:26:38;3.70;;;2.10;;
34695;SDS011;20918;51.138;17.370;2023-05-29T09:29:39;5.50;;;2.20;;
34695;SDS011;20918;51.138;17.370;2023-05-29T09:32:44;5.20;;;2.30;;
34695;SDS011;20918;51.138;17.370;2023-05-29T09:35:55;4.80;;;2.50;;
34695;SDS011;20918;51.138;17.370;2023-05-29T09:38:56;6.60;;;2.30;;
34695;SDS011;20918;51.138;17.370;2023-05-29T09:41:56;3.70;;;2.10;;
34695;SDS011;20918;51.138;17.370;2023-05-29T09:44:59;3.40;;;2.40;;
34695;SDS011;20918;51.138;17.370;2023-05-29T09:48:00;4.40;;;2.10;;
34695;SDS011;20918;51.138;17.370;2023-05-29T09:51:02;4.60;;;2.20;;
34695;SDS011;20918;51.138;17.370;2023-05-29T09:54:13;9.00;;;2.70;;
34695;SDS011;20918;51.138;17.370;2023-05-29T09:57:17;7.00;;;2.10;;
34695;SDS011;20918;51.138;17.370;2023-05-29T10:00:18;5.90;;;2.20;;
34695;SDS011;20918;51.138;17.370;2023-05-29T10:03:39;3.70;;;2.10;;
34695;SDS011;20918;51.138;17.370;2023-05-29T10:06:45;4.60;;;2.70;;
34695;SDS011;20918;51.138;17.370;2023-05-29T10:09:49;2.50;;;2.20;;
34695;SDS011;20918;51.138;17.370;2023-05-29T10:12:55;5.50;;;2.50;;
34695;SDS011;20918;51.138;17.370;2023-05-29T10:15:56;6.40;;;2.50;;
34695;SDS011;20918;51.138;17.370;2023-05-29T10:19:01;4.10;;;2.20;;
34695;SDS011;20918;51.138;17.370;2023-05-29T10:22:07;5.80;;;1.90;;
34695;SDS011;20918;51.138;17.370;2023-05-29T10:25:10;5.30;;;2.50;;
34695;SDS011;20918;51.138;17.370;2023-05-29T10:28:18;6.80;;;2.50;;
34695;SDS011;20918;51.138;17.370;2023-05-29T10:31:28;3.30;;;2.50;;
34695;SDS011;20918;51.138;17.370;2023-05-29T10:34:56;7.80;;;2.90;;
34695;SDS011;20918;51.138;17.370;2023-05-29T10:38:10;5.40;;;2.70;;
34695;SDS011;20918;51.138;17.370;2023-05-29T10:51:28;5.50;;;2.90;;
34695;SDS011;20918;51.138;17.370;2023-05-29T10:54:39;8.00;;;2.60;;
34695;SDS011;20918;51.138;17.370;2023-05-29T11:00:47;5.30;;;2.60;;
34695;SDS011;20918;51.138;17.370;2023-05-29T11:03:48;10.50;;;2.60;;
34695;SDS011;20918;51.138;17.370;2023-05-29T11:06:49;8.30;;;3.00;;
34695;SDS011;20918;51.138;17.370;2023-05-29T11:09:51;7.30;;;2.70;;
34695;SDS011;20918;51.138;17.370;2023-05-29T11:12:55;4.60;;;2.70;;
34695;SDS011;20918;51.138;17.370;2023-05-29T11:16:11;8.50;;;3.10;;
34695;SDS011;20918;51.138;17.370;2023-05-29T11:19:15;5.00;;;2.60;;
34695;SDS011;20918;51.138;17.370;2023-05-29T11:22:18;6.10;;;3.00;;
34695;SDS011;20918;51.138;17.370;2023-05-29T11:25:24;5.00;;;3.10;;
34695;SDS011;20918;51.138;17.370;2023-05-29T11:28:25;9.50;;;3.10;;
34695;SDS011;20918;51.138;17.370;2023-05-29T11:31:32;6.50;;;2.60;;
34695;SDS011;20918;51.138;17.370;2023-05-29T11:34:35;5.60;;;2.50;;
34695;SDS011;20918;51.138;17.370;2023-05-29T11:38:01;3.80;;;2.70;;
34695;SDS011;20918;51.138;17.370;2023-05-29T11:41:03;8.80;;;2.70;;
34695;SDS011;20918;51.138;17.370;2023-05-29T11:44:04;8.50;;;2.70;;
34695;SDS011;20918;51.138;17.370;2023-05-29T11:47:24;8.90;;;2.80;;
34695;SDS011;20918;51.138;17.370;2023-05-29T11:50:26;4.70;;;2.80;;
34695;SDS011;20918;51.138;17.370;2023-05-29T11:53:33;6.40;;;3.10;;
34695;SDS011;20918;51.138;17.370;2023-05-29T11:56:33;4.00;;;2.10;;
34695;SDS011;20918;51.138;17.370;2023-05-29T11:59:35;4.40;;;2.30;;
34695;SDS011;20918;51.138;17.370;2023-05-29T12:03:16;4.10;;;2.60;;
34695;SDS011;20918;51.138;17.370;2023-05-29T12:06:37;6.50;;;2.50;;
34695;SDS011;20918;51.138;17.370;2023-05-29T12:09:38;5.40;;;2.60;;
34695;SDS011;20918;51.138;17.370;2023-05-29T12:12:42;5.60;;;2.50;;
34695;SDS011;20918;51.138;17.370;2023-05-29T12:15:46;5.50;;;2.60;;
34695;SDS011;20918;51.138;17.370;2023-05-29T12:18:52;4.50;;;2.60;;
34695;SDS011;20918;51.138;17.370;2023-05-29T12:25:21;8.90;;;2.60;;
34695;SDS011;20918;51.138;17.370;2023-05-29T12:28:23;4.60;;;2.70;;
34695;SDS011;20918;51.138;17.370;2023-05-29T12:31:30;4.90;;;2.90;;
34695;SDS011;20918;51.138;17.370;2023-05-29T12:37:47;9.80;;;2.60;;
34695;SDS011;20918;51.138;17.370;2023-05-29T12:40:49;6.30;;;2.70;;
34695;SDS011;20918;51.138;17.370;2023-05-29T12:43:52;6.90;;;2.90;;
34695;SDS011;20918;51.138;17.370;2023-05-29T12:46:56;7.70;;;2.60;;
34695;SDS011;20918;51.138;17.370;2023-05-29T12:49:57;4.50;;;2.80;;
34695;SDS011;20918;51.138;17.370;2023-05-29T12:53:02;5.20;;;2.70;;
34695;SDS011;20918;51.138;17.370;2023-05-29T12:56:06;3.50;;;2.90;;
34695;SDS011;20918;51.138;17.370;2023-05-29T12:59:10;3.90;;;2.60;;
34695;SDS011;20918;51.138;17.370;2023-05-29T13:02:11;6.00;;;2.80;;
34695;SDS011;20918;51.138;17.370;2023-05-29T13:05:12;6.60;;;2.80;;
34695;SDS011;20918;51.138;17.370;2023-05-29T13:11:38;5.60;;;2.50;;
34695;SDS011;20918;51.138;17.370;2023-05-29T13:14:39;3.20;;;2.50;;
34695;SDS011;20918;51.138;17.370;2023-05-29T13:17:40;4.30;;;2.60;;
34695;SDS011;20918;51.138;17.370;2023-05-29T13:20:41;3.80;;;2.60;;
34695;SDS011;20918;51.138;17.370;2023-05-29T13:23:42;7.60;;;2.50;;
34695;SDS011;20918;51.138;17.370;2023-05-29T13:27:04;23.70;;;3.70;;
34695;SDS011;20918;51.138;17.370;2023-05-29T13:30:05;4.60;;;2.50;;
34695;SDS011;20918;51.138;17.370;2023-05-29T13:33:07;5.40;;;2.40;;
34695;SDS011;20918;51.138;17.370;2023-05-29T13:36:27;4.30;;;2.40;;
34695;SDS011;20918;51.138;17.370;2023-05-29T13:39:28;6.00;;;2.50;;
34695;SDS011;20918;51.138;17.370;2023-05-29T13:42:32;6.90;;;3.00;;
34695;SDS011;20918;51.138;17.370;2023-05-29T13:45:33;5.00;;;2.60;;
34695;SDS011;20918;51.138;17.370;2023-05-29T13:48:33;3.30;;;2.70;;
34695;SDS011;20918;51.138;17.370;2023-05-29T13:51:34;6.00;;;2.80;;
34695;SDS011;20918;51.138;17.370;2023-05-29T13:54:36;6.30;;;2.90;;
34695;SDS011;20918;51.138;17.370;2023-05-29T13:57:37;4.80;;;2.50;;
34695;SDS011;20918;51.138;17.370;2023-05-29T14:00:38;4.80;;;2.80;;
34695;SDS011;20918;51.138;17.370;2023-05-29T14:03:38;4.60;;;2.80;;
34695;SDS011;20918;51.138;17.370;2023-05-29T14:06:42;4.40;;;2.50;;
34695;SDS011;20918;51.138;17.370;2023-05-29T14:09:43;5.70;;;3.10;;
34695;SDS011;20918;51.138;17.370;2023-05-29T14:12:43;4.50;;;2.70;;
34695;SDS011;20918;51.138;17.370;2023-05-29T14:15:44;8.30;;;3.10;;
34695;SDS011;20918;51.138;17.370;2023-05-29T14:18:45;4.80;;;2.90;;
34695;SDS011;20918;51.138;17.370;2023-05-29T14:21:52;6.10;;;2.60;;
34695;SDS011;20918;51.138;17.370;2023-05-29T14:24:52;8.70;;;2.70;;
34695;SDS011;20918;51.138;17.370;2023-05-29T14:27:54;7.10;;;3.10;;
34695;SDS011;20918;51.138;17.370;2023-05-29T14:30:55;10.80;;;2.60;;
34695;SDS011;20918;51.138;17.370;2023-05-29T14:33:55;7.10;;;2.90;;
34695;SDS011;20918;51.138;17.370;2023-05-29T14:36:56;5.10;;;3.00;;
34695;SDS011;20918;51.138;17.370;2023-05-29T14:39:58;5.30;;;2.30;;
34695;SDS011;20918;51.138;17.370;2023-05-29T14:42:59;5.00;;;2.60;;
34695;SDS011;20918;51.138;17.370;2023-05-29T14:46:02;6.70;;;2.90;;
34695;SDS011;20918;51.138;17.370;2023-05-29T14:49:02;3.50;;;2.40;;
34695;SDS011;20918;51.138;17.370;2023-05-29T14:52:04;4.70;;;2.90;;
34695;SDS011;20918;51.138;17.370;2023-05-29T14:55:08;12.40;;;2.80;;
34695;SDS011;20918;51.138;17.370;2023-05-29T14:58:08;6.30;;;3.00;;
34695;SDS011;20918;51.138;17.370;2023-05-29T15:01:12;6.30;;;3.20;;
34695;SDS011;20918;51.138;17.370;2023-05-29T15:04:13;6.80;;;2.50;;
34695;SDS011;20918;51.138;17.370;2023-05-29T15:07:13;3.60;;;3.00;;
34695;SDS011;20918;51.138;17.370;2023-05-29T15:10:14;3.50;;;2.40;;
34695;SDS011;20918;51.138;17.370;2023-05-29T15:13:17;6.10;;;3.00;;
34695;SDS011;20918;51.138;17.370;2023-05-29T15:16:18;9.30;;;3.20;;
34695;SDS011;20918;51.138;17.370;2023-05-29T15:19:19;7.10;;;3.50;;
34695;SDS011;20918;51.138;17.370;2023-05-29T15:22:20;7.60;;;3.60;;
34695;SDS011;20918;51.138;17.370;2023-05-29T15:25:24;7.00;;;3.30;;
34695;SDS011;20918;51.138;17.370;2023-05-29T15:28:25;8.10;;;3.90;;
34695;SDS011;20918;51.138;17.370;2023-05-29T15:31:26;6.20;;;3.80;;
34695;SDS011;20918;51.138;17.370;2023-05-29T15:34:27;11.30;;;3.70;;
34695;SDS011;20918;51.138;17.370;2023-05-29T15:37:28;5.10;;;3.30;;
34695;SDS011;20918;51.138;17.370;2023-05-29T15:40:28;8.20;;;3.00;;
34695;SDS011;20918;51.138;17.370;2023-05-29T15:43:32;4.90;;;3.40;;
34695;SDS011;20918;51.138;17.370;2023-05-29T15:46:33;6.80;;;3.60;;
34695;SDS011;20918;51.138;17.370;2023-05-29T15:49:34;9.00;;;3.70;;
34695;SDS011;20918;51.138;17.370;2023-05-29T15:52:38;5.10;;;3.40;;
34695;SDS011;20918;51.138;17.370;2023-05-29T15:55:39;6.80;;;3.50;;
34695;SDS011;20918;51.138;17.370;2023-05-29T15:58:45;10.30;;;3.80;;
34695;SDS011;20918;51.138;17.370;2023-05-29T16:01:46;7.00;;;3.40;;
34695;SDS011;20918;51.138;17.370;2023-05-29T16:04:47;6.60;;;3.80;;
34695;SDS011;20918;51.138;17.370;2023-05-29T16:07:48;5.20;;;3.50;;
34695;SDS011;20918;51.138;17.370;2023-05-29T16:10:57;7.40;;;4.10;;
34695;SDS011;20918;51.138;17.370;2023-05-29T16:14:27;6.10;;;3.70;;
34695;SDS011;20918;51.138;17.370;2023-05-29T16:17:28;8.50;;;3.70;;
34695;SDS011;20918;51.138;17.370;2023-05-29T16:20:29;8.60;;;4.10;;
34695;SDS011;20918;51.138;17.370;2023-05-29T16:23:31;8.30;;;4.30;;
34695;SDS011;20918;51.138;17.370;2023-05-29T16:26:32;9.20;;;4.60;;
34695;SDS011;20918;51.138;17.370;2023-05-29T16:29:34;16.50;;;4.50;;
34695;SDS011;20918;51.138;17.370;2023-05-29T16:32:34;6.70;;;4.70;;
34695;SDS011;20918;51.138;17.370;2023-05-29T16:35:35;7.00;;;3.90;;
34695;SDS011;20918;51.138;17.370;2023-05-29T16:38:36;6.20;;;4.00;;
34695;SDS011;20918;51.138;17.370;2023-05-29T16:41:37;14.40;;;4.80;;
34695;SDS011;20918;51.138;17.370;2023-05-29T16:44:38;10.30;;;4.60;;
34695;SDS011;20918;51.138;17.370;2023-05-29T16:47:39;8.90;;;4.20;;
34695;SDS011;20918;51.138;17.370;2023-05-29T16:50:40;8.40;;;4.10;;
34695;SDS011;20918;51.138;17.370;2023-05-29T16:53:40;9.20;;;4.00;;
34695;SDS011;20918;51.138;17.370;2023-05-29T16:56:41;14.40;;;4.20;;
34695;SDS011;20918;51.138;17.370;2023-05-29T16:59:42;10.80;;;4.50;;
34695;SDS011;20918;51.138;17.370;2023-05-29T17:02:50;23.60;;;8.70;;
34695;SDS011;20918;51.138;17.370;2023-05-29T17:05:59;10.70;;;6.20;;
34695;SDS011;20918;51.138;17.370;2023-05-29T17:09:09;10.20;;;5.20;;
34695;SDS011;20918;51.138;17.370;2023-05-29T17:12:25;11.30;;;4.20;;
34695;SDS011;20918;51.138;17.370;2023-05-29T17:15:46;10.60;;;5.40;;
34695;SDS011;20918;51.138;17.370;2023-05-29T17:18:47;8.60;;;5.10;;
34695;SDS011;20918;51.138;17.370;2023-05-29T17:21:48;11.30;;;4.60;;
34695;SDS011;20918;51.138;17.370;2023-05-29T17:24:49;7.00;;;4.30;;
34695;SDS011;20918;51.138;17.370;2023-05-29T17:27:49;5.90;;;3.60;;
34695;SDS011;20918;51.138;17.370;2023-05-29T17:30:50;9.00;;;4.70;;
34695;SDS011;20918;51.138;17.370;2023-05-29T17:33:51;6.70;;;3.80;;
34695;SDS011;20918;51.138;17.370;2023-05-29T17:36:52;7.00;;;4.00;;
34695;SDS011;20918;51.138;17.370;2023-05-29T17:39:53;7.30;;;3.80;;
34695;SDS011;20918;51.138;17.370;2023-05-29T17:42:54;9.20;;;4.00;;
34695;SDS011;20918;51.138;17.370;2023-05-29T17:45:55;37.40;;;4.80;;
34695;SDS011;20918;51.138;17.370;2023-05-29T17:49:04;6.80;;;4.20;;
34695;SDS011;20918;51.138;17.370;2023-05-29T17:52:05;10.90;;;4.20;;
34695;SDS011;20918;51.138;17.370;2023-05-29T17:55:09;6.40;;;3.70;;
34695;SDS011;20918;51.138;17.370;2023-05-29T17:58:10;9.40;;;4.00;;
34695;SDS011;20918;51.138;17.370;2023-05-29T18:01:11;9.70;;;3.40;;
34695;SDS011;20918;51.138;17.370;2023-05-29T18:04:12;8.70;;;4.60;;
34695;SDS011;20918;51.138;17.370;2023-05-29T18:07:17;7.40;;;4.00;;
34695;SDS011;20918;51.138;17.370;2023-05-29T18:10:21;8.20;;;4.80;;
34695;SDS011;20918;51.138;17.370;2023-05-29T18:13:25;8.60;;;4.20;;
34695;SDS011;20918;51.138;17.370;2023-05-29T18:16:56;9.60;;;4.10;;
34695;SDS011;20918;51.138;17.370;2023-05-29T18:19:57;9.30;;;4.10;;
34695;SDS011;20918;51.138;17.370;2023-05-29T18:22:58;8.20;;;4.60;;
34695;SDS011;20918;51.138;17.370;2023-05-29T18:25:58;6.90;;;4.00;;
34695;SDS011;20918;51.138;17.370;2023-05-29T18:29:00;11.90;;;4.50;;
34695;SDS011;20918;51.138;17.370;2023-05-29T18:32:02;10.20;;;4.40;;
34695;SDS011;20918;51.138;17.370;2023-05-29T18:35:03;9.70;;;4.00;;
34695;SDS011;20918;51.138;17.370;2023-05-29T18:38:04;9.50;;;4.50;;
34695;SDS011;20918;51.138;17.370;2023-05-29T18:41:05;9.90;;;5.40;;
34695;SDS011;20918;51.138;17.370;2023-05-29T18:44:05;11.50;;;6.10;;
34695;SDS011;20918;51.138;17.370;2023-05-29T18:47:06;9.80;;;5.00;;
34695;SDS011;20918;51.138;17.370;2023-05-29T18:50:07;8.00;;;4.70;;
34695;SDS011;20918;51.138;17.370;2023-05-29T18:53:08;8.70;;;4.20;;
34695;SDS011;20918;51.138;17.370;2023-05-29T18:56:09;6.80;;;4.60;;
34695;SDS011;20918;51.138;17.370;2023-05-29T18:59:10;10.10;;;5.70;;
34695;SDS011;20918;51.138;17.370;2023-05-29T19:02:10;12.00;;;4.90;;
34695;SDS011;20918;51.138;17.370;2023-05-29T19:05:11;12.60;;;5.30;;
34695;SDS011;20918;51.138;17.370;2023-05-29T19:08:12;7.30;;;4.30;;
34695;SDS011;20918;51.138;17.370;2023-05-29T19:11:12;9.80;;;5.50;;
34695;SDS011;20918;51.138;17.370;2023-05-29T19:14:15;7.80;;;4.90;;
34695;SDS011;20918;51.138;17.370;2023-05-29T19:17:17;12.50;;;5.20;;
34695;SDS011;20918;51.138;17.370;2023-05-29T19:20:19;11.10;;;5.60;;
34695;SDS011;20918;51.138;17.370;2023-05-29T19:23:19;10.60;;;5.40;;
34695;SDS011;20918;51.138;17.370;2023-05-29T19:26:21;12.50;;;6.10;;
34695;SDS011;20918;51.138;17.370;2023-05-29T19:29:23;10.40;;;5.50;;
34695;SDS011;20918;51.138;17.370;2023-05-29T19:32:24;9.20;;;5.60;;
34695;SDS011;20918;51.138;17.370;2023-05-29T19:35:27;10.70;;;5.50;;
34695;SDS011;20918;51.138;17.370;2023-05-29T19:38:28;8.20;;;4.60;;
34695;SDS011;20918;51.138;17.370;2023-05-29T19:41:28;11.50;;;6.10;;
34695;SDS011;20918;51.138;17.370;2023-05-29T19:44:29;13.30;;;6.30;;
34695;SDS011;20918;51.138;17.370;2023-05-29T19:47:30;19.90;;;7.80;;
34695;SDS011;20918;51.138;17.370;2023-05-29T19:50:31;19.10;;;9.10;;
34695;SDS011;20918;51.138;17.370;2023-05-29T19:53:33;13.10;;;8.70;;
34695;SDS011;20918;51.138;17.370;2023-05-29T19:56:36;15.00;;;7.90;;
34695;SDS011;20918;51.138;17.370;2023-05-29T20:02:38;14.90;;;7.10;;
34695;SDS011;20918;51.138;17.370;2023-05-29T20:05:38;11.50;;;6.00;;
34695;SDS011;20918;51.138;17.370;2023-05-29T20:14:41;9.60;;;6.10;;
34695;SDS011;20918;51.138;17.370;2023-05-29T20:17:41;13.30;;;7.30;;
34695;SDS011;20918;51.138;17.370;2023-05-29T20:20:43;13.00;;;7.60;;
34695;SDS011;20918;51.138;17.370;2023-05-29T20:23:48;11.80;;;6.50;;
34695;SDS011;20918;51.138;17.370;2023-05-29T20:26:50;16.80;;;7.50;;
34695;SDS011;20918;51.138;17.370;2023-05-29T20:29:52;19.60;;;9.90;;
34695;SDS011;20918;51.138;17.370;2023-05-29T20:32:53;16.20;;;8.90;;
34695;SDS011;20918;51.138;17.370;2023-05-29T20:35:54;15.40;;;8.70;;
34695;SDS011;20918;51.138;17.370;2023-05-29T20:38:58;17.60;;;9.00;;
34695;SDS011;20918;51.138;17.370;2023-05-29T20:42:04;17.50;;;9.30;;
34695;SDS011;20918;51.138;17.370;2023-05-29T20:45:08;11.00;;;6.20;;
34695;SDS011;20918;51.138;17.370;2023-05-29T20:48:10;9.80;;;5.40;;
34695;SDS011;20918;51.138;17.370;2023-05-29T20:51:11;11.10;;;6.50;;
34695;SDS011;20918;51.138;17.370;2023-05-29T20:54:11;11.00;;;5.90;;
34695;SDS011;20918;51.138;17.370;2023-05-29T21:00:13;12.50;;;6.10;;
34695;SDS011;20918;51.138;17.370;2023-05-29T21:03:14;10.20;;;5.80;;
34695;SDS011;20918;51.138;17.370;2023-05-29T21:06:15;16.00;;;8.30;;
34695;SDS011;20918;51.138;17.370;2023-05-29T21:09:16;13.20;;;7.30;;
34695;SDS011;20918;51.138;17.370;2023-05-29T21:12:26;16.80;;;7.40;;
34695;SDS011;20918;51.138;17.370;2023-05-29T21:15:42;12.90;;;8.20;;
34695;SDS011;20918;51.138;17.370;2023-05-29T21:18:43;17.10;;;8.80;;
34695;SDS011;20918;51.138;17.370;2023-05-29T21:24:44;18.50;;;9.10;;
34695;SDS011;20918;51.138;17.370;2023-05-29T21:27:45;16.20;;;8.20;;
34695;SDS011;20918;51.138;17.370;2023-05-29T21:33:47;15.40;;;7.40;;
34695;SDS011;20918;51.138;17.370;2023-05-29T21:36:47;9.90;;;6.70;;
34695;SDS011;20918;51.138;17.370;2023-05-29T21:42:48;10.40;;;7.40;;
34695;SDS011;20918;51.138;17.370;2023-05-29T21:45:51;11.80;;;7.00;;
34695;SDS011;20918;51.138;17.370;2023-05-29T21:48:51;16.30;;;7.20;;